Time,TemperatureF,DewpointF,PressureIn,WindDirection,WindDirectionDegrees,WindSpeedMPH,WindSpeedGustMPH,Humidity,HourlyPrecipIn,Conditions,Clouds,dailyrainin,SoftwareType,DateUTC
2013-03-09 00:00:00,31.4,26.2,30.40,WSW,254,1.0,1.0,81,0.00,,,0.02,Wunderground v.1.15,2013-03-09 05:00:00,
2013-03-09 00:05:00,31.5,26.3,30.40,West,267,2.0,3.0,81,0.00,,,0.02,Wunderground v.1.15,2013-03-09 05:05:00,
2013-03-09 00:10:00,31.7,26.5,30.39,West,269,2.0,8.0,81,0.00,,,0.02,Wunderground v.1.15,2013-03-09 05:10:00,
2013-03-09 00:15:00,31.6,26.4,30.39,West,261,2.0,8.0,81,0.00,,,0.02,Wunderground v.1.15,2013-03-09 05:15:00,
2013-03-09 00:20:00,31.5,26.3,30.39,WSW,240,1.0,8.0,81,0.00,,,0.02,Wunderground v.1.15,2013-03-09 05:20:00,
2013-03-09 00:30:00,31.4,26.5,30.39,WSW,240,1.0,8.0,82,0.00,,,0.02,Wunderground v.1.15,2013-03-09 05:30:00,
2013-03-09 00:35:00,31.3,26.4,30.39,WSW,240,2.0,8.0,82,0.00,,,0.02,Wunderground v.1.15,2013-03-09 05:35:00,
2013-03-09 00:40:00,31.2,26.3,30.39,WSW,240,1.0,1.0,82,0.00,,,0.02,Wunderground v.1.15,2013-03-09 05:40:00,
2013-03-09 00:45:00,31.1,26.2,30.39,WSW,240,1.0,8.0,82,0.00,,,0.02,Wunderground v.1.15,2013-03-09 05:45:00,
2013-03-09 00:50:00,31.1,26.2,30.39,WSW,239,1.0,8.0,82,0.00,,,0.02,Wunderground v.1.15,2013-03-09 05:50:00,
2013-03-09 00:55:00,31.1,26.5,30.39,WSW,239,1.0,8.0,83,0.00,,,0.02,Wunderground v.1.15,2013-03-09 05:55:00,
2013-03-09 01:05:00,31.2,26.6,30.39,WSW,245,2.0,8.0,83,0.00,,,0.02,Wunderground v.1.15,2013-03-09 06:05:00,
2013-03-09 01:10:00,31.2,26.6,30.39,WSW,250,2.0,8.0,83,0.00,,,0.02,Wunderground v.1.15,2013-03-09 06:10:00,
2013-03-09 01:15:00,31.2,26.6,30.39,WSW,242,2.0,8.0,83,0.00,,,0.02,Wunderground v.1.15,2013-03-09 06:15:00,
2013-03-09 01:20:00,31.1,26.8,30.39,WSW,248,2.0,8.0,84,0.00,,,0.02,Wunderground v.1.15,2013-03-09 06:20:00,
2013-03-09 01:25:00,31.2,26.9,30.40,WSW,252,3.0,8.0,84,0.00,,,0.02,Wunderground v.1.15,2013-03-09 06:25:00,
2013-03-09 01:30:00,31.2,26.9,30.40,SW,232,3.0,8.0,84,0.00,,,0.02,Wunderground v.1.15,2013-03-09 06:30:00,
2013-03-09 01:40:00,31.2,26.9,30.39,SW,230,3.0,3.0,84,0.00,,,0.00,Wunderground v.1.15,2013-03-09 06:40:00,
2013-03-09 01:45:00,31.1,26.8,30.40,WSW,257,2.0,4.0,84,0.00,,,0.00,Wunderground v.1.15,2013-03-09 06:45:00,
2013-03-09 01:50:00,31.2,26.9,30.39,WSW,240,2.0,8.0,84,0.00,,,0.00,Wunderground v.1.15,2013-03-09 06:50:00,
2013-03-09 01:55:00,31.1,27.1,30.39,SW,225,2.0,8.0,85,0.00,,,0.00,Wunderground v.1.15,2013-03-09 06:55:00,
2013-03-09 02:00:00,31.2,27.2,30.39,WSW,242,2.0,2.0,85,0.00,,,0.00,Wunderground v.1.15,2013-03-09 07:00:00,
2013-03-09 02:05:00,31.2,27.2,30.39,SW,219,2.0,8.0,85,0.00,,,0.00,Wunderground v.1.15,2013-03-09 07:05:00,
2013-03-09 02:10:00,31.2,27.2,30.39,SW,232,2.0,8.0,85,0.00,,,0.00,Wunderground v.1.15,2013-03-09 07:10:00,
2013-03-09 02:20:00,30.9,27.2,30.39,SW,235,3.0,8.0,86,0.00,,,0.00,Wunderground v.1.15,2013-03-09 07:20:00,
2013-03-09 02:25:00,30.8,27.1,30.38,WSW,246,3.0,8.0,86,0.00,,,0.00,Wunderground v.1.15,2013-03-09 07:25:00,
2013-03-09 02:30:00,30.7,27.0,30.38,WSW,249,3.0,3.0,86,0.00,,,0.00,Wunderground v.1.15,2013-03-09 07:30:00,
2013-03-09 02:35:00,30.8,27.1,30.38,West,259,3.0,8.0,86,0.00,,,0.00,Wunderground v.1.15,2013-03-09 07:35:00,
2013-03-09 02:40:00,30.8,27.1,30.38,WSW,242,3.0,8.0,86,0.00,,,0.00,Wunderground v.1.15,2013-03-09 07:40:00,
2013-03-09 02:45:00,30.8,27.1,30.38,SW,223,2.0,8.0,86,0.00,,,0.00,Wunderground v.1.15,2013-03-09 07:45:00,
2013-03-09 02:50:00,30.8,27.1,30.38,WSW,249,2.0,8.0,86,0.00,,,0.00,Wunderground v.1.15,2013-03-09 07:50:00,
2013-03-09 03:00:00,30.8,27.1,30.38,SW,223,2.0,2.0,86,0.00,,,0.00,Wunderground v.1.15,2013-03-09 08:00:00,
2013-03-09 03:05:00,30.8,27.4,30.37,SW,222,2.0,8.0,87,0.00,,,0.00,Wunderground v.1.15,2013-03-09 08:05:00,
2013-03-09 03:10:00,30.8,27.4,30.37,WSW,238,1.0,8.0,87,0.00,,,0.00,Wunderground v.1.15,2013-03-09 08:10:00,
2013-03-09 03:15:00,30.8,27.4,30.37,SW,232,2.0,8.0,87,0.00,,,0.00,Wunderground v.1.15,2013-03-09 08:15:00,
2013-03-09 03:20:00,30.8,27.4,30.37,WSW,244,2.0,8.0,87,0.00,,,0.00,Wunderground v.1.15,2013-03-09 08:20:00,
2013-03-09 03:30:00,30.6,27.2,30.37,WSW,240,2.0,8.0,87,0.00,,,0.00,Wunderground v.1.15,2013-03-09 08:30:00,
2013-03-09 03:35:00,30.6,27.2,30.37,WSW,240,1.0,8.0,87,0.00,,,0.00,Wunderground v.1.15,2013-03-09 08:35:00,
2013-03-09 03:40:00,30.5,27.1,30.37,SW,236,0.0,8.0,87,0.00,,,0.00,Wunderground v.1.15,2013-03-09 08:40:00,
2013-03-09 03:45:00,30.5,27.1,30.37,SW,232,1.0,8.0,87,0.00,,,0.00,Wunderground v.1.15,2013-03-09 08:45:00,
2013-03-09 03:50:00,30.6,27.2,30.37,SW,217,1.0,1.0,87,0.00,,,0.00,Wunderground v.1.15,2013-03-09 08:50:00,
2013-03-09 03:55:00,30.7,27.3,30.36,WSW,238,1.0,8.0,87,0.00,,,0.00,Wunderground v.1.15,2013-03-09 08:55:00,
2013-03-09 04:00:00,30.7,27.3,30.36,SW,222,1.0,8.0,87,0.00,,,0.00,Wunderground v.1.15,2013-03-09 09:00:00,
2013-03-09 04:10:00,30.8,27.4,30.36,SW,228,0.0,8.0,87,0.00,,,0.00,Wunderground v.1.15,2013-03-09 09:10:00,
2013-03-09 04:15:00,30.7,27.3,30.36,SW,228,1.0,8.0,87,0.00,,,0.00,Wunderground v.1.15,2013-03-09 09:15:00,
2013-03-09 04:20:00,30.6,27.2,30.36,SW,228,0.0,8.0,87,0.00,,,0.00,Wunderground v.1.15,2013-03-09 09:20:00,
2013-03-09 04:25:00,30.5,27.1,30.36,SW,226,0.0,8.0,87,0.00,,,0.00,Wunderground v.1.15,2013-03-09 09:25:00,
2013-03-09 04:30:00,30.2,26.8,30.36,SW,226,0.0,8.0,87,0.00,,,0.00,Wunderground v.1.15,2013-03-09 09:30:00,
2013-03-09 04:35:00,30.0,26.6,30.36,SW,226,0.0,8.0,87,0.00,,,0.00,Wunderground v.1.15,2013-03-09 09:35:00,
2013-03-09 04:40:00,28.8,25.1,30.36,WSW,242,1.0,1.0,86,0.00,,,0.00,Wunderground v.1.15,2013-03-09 09:40:00,
2013-03-09 04:50:00,27.7,24.9,30.36,WSW,244,1.0,8.0,89,0.00,,,0.00,Wunderground v.1.15,2013-03-09 09:50:00,
2013-03-09 04:55:00,27.4,24.9,30.36,WSW,244,0.0,8.0,90,0.00,,,0.00,Wunderground v.1.15,2013-03-09 09:55:00,
2013-03-09 05:00:00,27.3,24.8,30.36,WSW,244,0.0,8.0,90,0.00,,,0.00,Wunderground v.1.15,2013-03-09 10:00:00,
2013-03-09 05:05:00,27.0,24.5,30.36,WSW,244,0.0,8.0,90,0.00,,,0.00,Wunderground v.1.15,2013-03-09 10:05:00,
2013-03-09 05:10:00,26.6,24.1,30.36,WSW,244,0.0,8.0,90,0.00,,,0.00,Wunderground v.1.15,2013-03-09 10:10:00,
2013-03-09 05:15:00,26.7,24.7,30.36,WSW,244,0.0,8.0,92,0.00,,,0.00,Wunderground v.1.15,2013-03-09 10:15:00,
2013-03-09 05:20:00,26.7,24.7,30.36,WSW,244,0.0,8.0,92,0.00,,,0.00,Wunderground v.1.15,2013-03-09 10:20:00,
2013-03-09 05:25:00,26.6,24.6,30.37,WSW,244,0.0,8.0,92,0.00,,,0.00,Wunderground v.1.15,2013-03-09 10:25:00,
2013-03-09 05:35:00,26.1,24.1,30.37,WSW,244,0.0,8.0,92,0.00,,,0.00,Wunderground v.1.15,2013-03-09 10:35:00,
2013-03-09 05:40:00,26.0,24.0,30.37,WSW,244,0.0,8.0,92,0.00,,,0.00,Wunderground v.1.15,2013-03-09 10:40:00,
2013-03-09 05:45:00,25.9,23.9,30.37,WSW,244,0.0,8.0,92,0.00,,,0.00,Wunderground v.1.15,2013-03-09 10:45:00,
2013-03-09 05:50:00,25.6,23.6,30.37,WSW,244,0.0,8.0,92,0.00,,,0.00,Wunderground v.1.15,2013-03-09 10:50:00,
2013-03-09 05:55:00,25.4,23.4,30.37,WSW,244,0.0,8.0,92,0.00,,,0.00,Wunderground v.1.15,2013-03-09 10:55:00,
2013-03-09 06:00:00,25.2,23.2,30.37,WSW,244,0.0,8.0,92,0.00,,,0.00,Wunderground v.1.15,2013-03-09 11:00:00,
2013-03-09 06:05:00,25.3,23.6,30.38,WSW,244,0.0,8.0,93,0.00,,,0.00,Wunderground v.1.15,2013-03-09 11:05:00,
2013-03-09 06:10:00,25.3,23.6,30.38,WSW,244,0.0,8.0,93,0.00,,,0.00,Wunderground v.1.15,2013-03-09 11:10:00,
2013-03-09 06:20:00,24.6,22.6,30.38,WSW,244,0.0,8.0,92,0.00,,,0.00,Wunderground v.1.15,2013-03-09 11:20:00,
2013-03-09 06:25:00,24.2,22.2,30.38,WSW,244,0.0,8.0,92,0.00,,,0.00,Wunderground v.1.15,2013-03-09 11:25:00,
2013-03-09 06:30:00,23.8,21.8,30.39,WSW,244,0.0,8.0,92,0.00,,,0.00,Wunderground v.1.15,2013-03-09 11:30:00,
2013-03-09 06:35:00,23.5,21.5,30.39,WSW,244,0.0,8.0,92,0.00,,,0.00,Wunderground v.1.15,2013-03-09 11:35:00,
2013-03-09 06:40:00,23.3,21.6,30.39,WSW,244,0.0,8.0,93,0.00,,,0.00,Wunderground v.1.15,2013-03-09 11:40:00,
2013-03-09 06:45:00,23.3,21.6,30.39,WSW,244,0.0,8.0,93,0.00,,,0.00,Wunderground v.1.15,2013-03-09 11:45:00,
2013-03-09 06:50:00,23.5,22.0,30.39,WSW,244,0.0,8.0,94,0.00,,,0.00,Wunderground v.1.15,2013-03-09 11:50:00,
2013-03-09 07:00:00,23.8,22.3,30.40,WSW,244,0.0,8.0,94,0.00,,,0.00,Wunderground v.1.15,2013-03-09 12:00:00,
2013-03-09 07:05:00,24.0,22.5,30.40,WSW,244,0.0,8.0,94,0.00,,,0.00,Wunderground v.1.15,2013-03-09 12:05:00,
2013-03-09 07:10:00,24.5,23.3,30.40,WSW,244,1.0,8.0,95,0.00,,,0.00,Wunderground v.1.15,2013-03-09 12:10:00,
2013-03-09 07:15:00,25.2,24.2,30.40,WSW,244,1.0,8.0,96,0.00,,,0.00,Wunderground v.1.15,2013-03-09 12:15:00,
2013-03-09 07:20:00,25.7,24.5,30.40,WSW,244,0.0,8.0,95,0.00,,,0.00,Wunderground v.1.15,2013-03-09 12:20:00,
2013-03-09 07:25:00,26.2,25.0,30.40,WSW,244,1.0,8.0,95,0.00,,,0.00,Wunderground v.1.15,2013-03-09 12:25:00,
2013-03-09 07:35:00,25.8,24.3,30.41,WSW,244,1.0,8.0,94,0.00,,,0.00,Wunderground v.1.15,2013-03-09 12:35:00,
2013-03-09 07:40:00,25.7,24.2,30.41,WSW,244,0.0,8.0,94,0.00,,,0.00,Wunderground v.1.15,2013-03-09 12:40:00,
2013-03-09 07:45:00,25.6,24.1,30.41,WSW,244,0.0,8.0,94,0.00,,,0.00,Wunderground v.1.15,2013-03-09 12:45:00,
2013-03-09 07:50:00,25.7,24.2,30.41,WSW,244,0.0,8.0,94,0.00,,,0.00,Wunderground v.1.15,2013-03-09 12:50:00,
2013-03-09 07:55:00,26.1,24.6,30.41,WSW,244,0.0,8.0,94,0.00,,,0.00,Wunderground v.1.15,2013-03-09 12:55:00,
2013-03-09 08:00:00,26.9,25.7,30.40,SE,125,0.0,8.0,95,0.00,,,0.00,Wunderground v.1.15,2013-03-09 13:00:00,
2013-03-09 08:05:00,28.0,26.8,30.40,SE,125,0.0,8.0,95,0.00,,,0.00,Wunderground v.1.15,2013-03-09 13:05:00,
2013-03-09 08:15:00,30.2,28.7,30.40,SE,125,0.0,8.0,94,0.00,,,0.00,Wunderground v.1.15,2013-03-09 13:15:00,
2013-03-09 08:20:00,31.2,29.1,30.40,SE,125,0.0,8.0,92,0.00,,,0.00,Wunderground v.1.15,2013-03-09 13:20:00,
2013-03-09 08:25:00,31.9,29.6,30.40,SE,125,0.0,8.0,91,0.00,,,0.00,Wunderground v.1.15,2013-03-09 13:25:00,
2013-03-09 08:30:00,32.8,30.2,30.40,SE,125,0.0,8.0,90,0.00,,,0.00,Wunderground v.1.15,2013-03-09 13:30:00,
2013-03-09 08:35:00,33.8,30.1,30.40,SE,125,0.0,8.0,86,0.00,,,0.00,Wunderground v.1.15,2013-03-09 13:35:00,
2013-03-09 08:40:00,33.8,29.2,30.40,SE,125,0.0,8.0,83,0.00,,,0.00,Wunderground v.1.15,2013-03-09 13:40:00,
2013-03-09 08:50:00,32.8,28.5,30.40,East,94,0.0,8.0,84,0.00,,,0.00,Wunderground v.1.15,2013-03-09 13:50:00,
2013-03-09 08:55:00,32.4,28.4,30.41,East,94,0.0,8.0,85,0.00,,,0.00,Wunderground v.1.15,2013-03-09 13:55:00,
2013-03-09 09:00:00,32.2,28.5,30.41,East,94,0.0,8.0,86,0.00,,,0.00,Wunderground v.1.15,2013-03-09 14:00:00,
2013-03-09 09:05:00,32.1,28.4,30.41,East,94,0.0,8.0,86,0.00,,,0.00,Wunderground v.1.15,2013-03-09 14:05:00,
2013-03-09 09:10:00,32.3,28.6,30.41,East,94,0.0,8.0,86,0.00,,,0.00,Wunderground v.1.15,2013-03-09 14:10:00,
2013-03-09 09:15:00,32.9,29.7,30.41,East,94,0.0,8.0,88,0.00,,,0.00,Wunderground v.1.15,2013-03-09 14:15:00,
2013-03-09 09:25:00,34.5,30.2,30.42,East,94,0.0,8.0,84,0.00,,,0.00,Wunderground v.1.15,2013-03-09 14:25:00,
2013-03-09 09:30:00,35.0,30.4,30.42,East,94,0.0,8.0,83,0.00,,,0.00,Wunderground v.1.15,2013-03-09 14:30:00,
2013-03-09 09:35:00,35.3,30.4,30.42,East,94,0.0,8.0,82,0.00,,,0.00,Wunderground v.1.15,2013-03-09 14:35:00,
2013-03-09 09:40:00,35.9,30.9,30.42,East,94,0.0,8.0,82,0.00,,,0.00,Wunderground v.1.15,2013-03-09 14:40:00,
2013-03-09 09:45:00,36.4,31.1,30.41,East,94,0.0,8.0,81,0.00,,,0.00,Wunderground v.1.15,2013-03-09 14:45:00,
2013-03-09 09:50:00,36.8,31.5,30.41,ENE,61,0.0,8.0,81,0.00,,,0.00,Wunderground v.1.15,2013-03-09 14:50:00,
2013-03-09 09:55:00,37.5,31.6,30.41,ESE,120,1.0,8.0,79,0.00,,,0.00,Wunderground v.1.15,2013-03-09 14:55:00,
2013-03-09 10:05:00,38.6,31.7,30.41,ESE,108,1.0,8.0,76,0.00,,,0.00,Wunderground v.1.15,2013-03-09 15:05:00,
2013-03-09 10:10:00,39.2,31.9,30.40,ENE,69,0.0,8.0,75,0.00,,,0.00,Wunderground v.1.15,2013-03-09 15:10:00,
2013-03-09 10:15:00,39.3,32.0,30.40,ENE,65,0.0,8.0,75,0.00,,,0.00,Wunderground v.1.15,2013-03-09 15:15:00,
2013-03-09 10:20:00,39.1,31.8,30.40,ENE,65,0.0,8.0,75,0.00,,,0.00,Wunderground v.1.15,2013-03-09 15:20:00,
2013-03-09 10:25:00,38.7,31.8,30.40,ENE,65,0.0,8.0,76,0.00,,,0.00,Wunderground v.1.15,2013-03-09 15:25:00,
2013-03-09 10:30:00,38.6,31.7,30.40,NNE,29,0.0,8.0,76,0.00,,,0.00,Wunderground v.1.15,2013-03-09 15:30:00,
2013-03-09 10:40:00,37.5,31.6,30.40,NNE,29,0.0,8.0,79,0.00,,,0.00,Wunderground v.1.15,2013-03-09 15:40:00,
2013-03-09 10:45:00,37.3,31.7,30.40,NNE,29,0.0,8.0,80,0.00,,,0.00,Wunderground v.1.15,2013-03-09 15:45:00,
2013-03-09 10:50:00,37.7,31.5,30.40,NNE,29,0.0,8.0,78,0.00,,,0.00,Wunderground v.1.15,2013-03-09 15:50:00,
2013-03-09 10:55:00,38.1,31.8,30.40,NNE,29,0.0,8.0,78,0.00,,,0.00,Wunderground v.1.15,2013-03-09 15:55:00,
2013-03-09 11:00:00,37.9,31.7,30.40,NNE,29,0.0,8.0,78,0.00,,,0.00,Wunderground v.1.15,2013-03-09 16:00:00,
2013-03-09 11:05:00,38.0,32.1,30.39,NNE,29,0.0,8.0,79,0.00,,,0.00,Wunderground v.1.15,2013-03-09 16:05:00,
2013-03-09 11:15:00,38.2,31.0,30.39,NNE,29,0.0,8.0,75,0.00,,,0.00,Wunderground v.1.15,2013-03-09 16:15:00,
2013-03-09 11:20:00,38.2,31.3,30.39,NNE,29,0.0,8.0,76,0.00,,,0.00,Wunderground v.1.15,2013-03-09 16:20:00,
2013-03-09 11:25:00,38.5,31.9,30.39,NNE,29,0.0,8.0,77,0.00,,,0.00,Wunderground v.1.15,2013-03-09 16:25:00,
2013-03-09 11:30:00,38.9,32.0,30.39,NNE,29,0.0,8.0,76,0.00,,,0.00,Wunderground v.1.15,2013-03-09 16:30:00,
2013-03-09 11:35:00,39.1,31.8,30.39,ENE,74,0.0,8.0,75,0.00,,,0.00,Wunderground v.1.15,2013-03-09 16:35:00,
2013-03-09 11:40:00,40.3,32.7,30.38,ENE,65,0.0,8.0,74,0.00,,,0.00,Wunderground v.1.15,2013-03-09 16:40:00,
2013-03-09 11:45:00,40.5,32.2,30.39,ENE,65,0.0,8.0,72,0.00,,,0.00,Wunderground v.1.15,2013-03-09 16:45:00,
2013-03-09 11:55:00,41.9,32.5,30.39,NE,51,0.0,8.0,69,0.00,,,0.00,Wunderground v.1.15,2013-03-09 16:55:00,
2013-03-09 12:00:00,42.6,33.1,30.39,NE,51,0.0,8.0,69,0.00,,,0.00,Wunderground v.1.15,2013-03-09 17:00:00,
2013-03-09 12:05:00,43.0,32.4,30.38,ENE,77,0.0,8.0,66,0.00,,,0.00,Wunderground v.1.15,2013-03-09 17:05:00,
2013-03-09 12:10:00,43.5,32.1,30.38,East,87,1.0,1.0,64,0.00,,,0.00,Wunderground v.1.15,2013-03-09 17:10:00,
2013-03-09 12:15:00,43.9,32.5,30.38,East,84,1.0,3.0,64,0.00,,,0.00,Wunderground v.1.15,2013-03-09 17:15:00,
2013-03-09 12:20:00,44.5,32.7,30.37,East,86,1.0,8.0,63,0.00,,,0.00,Wunderground v.1.15,2013-03-09 17:20:00,
2013-03-09 12:30:00,45.5,31.6,30.37,SSE,150,0.0,8.0,58,0.00,,,0.00,Wunderground v.1.15,2013-03-09 17:30:00,
2013-03-09 12:35:00,45.7,31.3,30.37,ESE,108,0.0,8.0,57,0.00,,,0.00,Wunderground v.1.15,2013-03-09 17:35:00,
2013-03-09 12:40:00,45.7,30.9,30.37,SE,132,1.0,8.0,56,0.00,,,0.00,Wunderground v.1.15,2013-03-09 17:40:00,
2013-03-09 12:45:00,45.4,29.3,30.37,ESE,115,1.0,8.0,53,0.00,,,0.00,Wunderground v.1.15,2013-03-09 17:45:00,
2013-03-09 12:50:00,45.4,28.8,30.37,SSE,154,1.0,1.0,52,0.00,,,0.00,Wunderground v.1.15,2013-03-09 17:50:00,
2013-03-09 12:55:00,45.2,30.4,30.37,SSW,200,1.0,8.0,56,0.00,,,0.00,Wunderground v.1.15,2013-03-09 17:55:00,
2013-03-09 13:05:00,45.4,31.0,30.36,SE,139,1.0,8.0,57,0.00,,,0.00,Wunderground v.1.15,2013-03-09 18:05:00,
2013-03-09 13:10:00,46.2,31.8,30.36,ESE,117,1.0,8.0,57,0.00,,,0.00,Wunderground v.1.15,2013-03-09 18:10:00,
2013-03-09 13:15:00,47.0,31.7,30.36,ESE,113,1.0,8.0,55,0.00,,,0.00,Wunderground v.1.15,2013-03-09 18:15:00,
2013-03-09 13:20:00,47.6,32.2,30.35,ESE,113,1.0,1.0,55,0.00,,,0.00,Wunderground v.1.15,2013-03-09 18:20:00,
2013-03-09 13:25:00,47.5,30.7,30.35,SW,232,1.0,8.0,52,0.00,,,0.00,Wunderground v.1.15,2013-03-09 18:25:00,
2013-03-09 13:35:00,47.1,30.4,30.35,SW,219,0.0,8.0,52,0.00,,,0.00,Wunderground v.1.15,2013-03-09 18:35:00,
2013-03-09 13:40:00,46.3,30.1,30.35,ESE,123,1.0,1.0,53,0.00,,,0.00,Wunderground v.1.15,2013-03-09 18:40:00,
2013-03-09 13:45:00,45.8,29.6,30.35,SSW,207,1.0,2.0,53,0.00,,,0.00,Wunderground v.1.15,2013-03-09 18:45:00,
2013-03-09 13:50:00,45.2,31.7,30.35,ESE,104,1.0,8.0,59,0.00,,,0.00,Wunderground v.1.15,2013-03-09 18:50:00,
2013-03-09 13:55:00,45.9,30.6,30.34,SE,129,2.0,8.0,55,0.00,,,0.00,Wunderground v.1.15,2013-03-09 18:55:00,
2013-03-09 14:00:00,46.5,30.7,30.34,SE,141,1.0,1.0,54,0.00,,,0.00,Wunderground v.1.15,2013-03-09 19:00:00,
2013-03-09 14:10:00,46.2,30.9,30.34,SSW,200,1.0,1.0,55,0.00,,,0.00,Wunderground v.1.15,2013-03-09 19:10:00,
2013-03-09 14:15:00,46.7,30.9,30.34,SE,128,0.0,8.0,54,0.00,,,0.00,Wunderground v.1.15,2013-03-09 19:15:00,
2013-03-09 14:20:00,47.4,32.0,30.34,ESE,117,1.0,1.0,55,0.00,,,0.00,Wunderground v.1.15,2013-03-09 19:20:00,
2013-03-09 14:25:00,48.1,30.8,30.33,ESE,117,1.0,8.0,51,0.00,,,0.00,Wunderground v.1.15,2013-03-09 19:25:00,
2013-03-09 14:30:00,48.1,33.1,30.33,ESE,110,0.0,8.0,56,0.00,,,0.00,Wunderground v.1.15,2013-03-09 19:30:00,
2013-03-09 14:35:00,48.5,33.1,30.33,East,81,0.0,8.0,55,0.00,,,0.00,Wunderground v.1.15,2013-03-09 19:35:00,
2013-03-09 14:40:00,49.1,32.2,30.33,East,86,0.0,8.0,52,0.00,,,0.00,Wunderground v.1.15,2013-03-09 19:40:00,
2013-03-09 14:50:00,49.4,32.0,30.33,East,80,1.0,1.0,51,0.00,,,0.00,Wunderground v.1.15,2013-03-09 19:50:00,
2013-03-09 14:55:00,49.5,32.1,30.33,East,80,0.0,8.0,51,0.00,,,0.00,Wunderground v.1.15,2013-03-09 19:55:00,
2013-03-09 15:00:00,49.4,32.0,30.33,East,80,0.0,8.0,51,0.00,,,0.00,Wunderground v.1.15,2013-03-09 20:00:00,
2013-03-09 15:05:00,49.6,32.2,30.33,East,80,0.0,8.0,51,0.00,,,0.00,Wunderground v.1.15,2013-03-09 20:05:00,
2013-03-09 15:10:00,48.8,30.0,30.32,NNE,22,0.0,8.0,48,0.00,,,0.00,Wunderground v.1.15,2013-03-09 20:10:00,
2013-03-09 15:20:00,48.4,31.6,30.32,NE,51,0.0,8.0,52,0.00,,,0.00,Wunderground v.1.15,2013-03-09 20:20:00,
2013-03-09 15:25:00,48.3,32.4,30.32,ENE,64,1.0,8.0,54,0.00,,,0.00,Wunderground v.1.15,2013-03-09 20:25:00,
2013-03-09 15:30:00,48.5,32.1,30.32,ENE,62,1.0,8.0,53,0.00,,,0.00,Wunderground v.1.15,2013-03-09 20:30:00,
2013-03-09 15:35:00,48.7,33.2,30.31,ENE,59,1.0,8.0,55,0.00,,,0.00,Wunderground v.1.15,2013-03-09 20:35:00,
2013-03-09 15:40:00,48.6,33.1,30.31,ENE,74,1.0,8.0,55,0.00,,,0.00,Wunderground v.1.15,2013-03-09 20:40:00,
2013-03-09 15:45:00,48.9,33.4,30.31,East,96,1.0,8.0,55,0.00,,,0.00,Wunderground v.1.15,2013-03-09 20:45:00,
2013-03-09 15:55:00,49.1,32.2,30.30,East,85,1.0,8.0,52,0.00,,,0.00,Wunderground v.1.15,2013-03-09 20:55:00,
2013-03-09 16:00:00,48.5,32.1,30.30,East,90,2.0,2.0,53,0.00,,,0.00,Wunderground v.1.15,2013-03-09 21:00:00,
2013-03-09 16:05:00,48.2,32.3,30.30,East,96,2.0,8.0,54,0.00,,,0.00,Wunderground v.1.15,2013-03-09 21:05:00,
2013-03-09 16:10:00,47.9,32.9,30.30,East,96,2.0,2.0,56,0.00,,,0.00,Wunderground v.1.15,2013-03-09 21:10:00,
2013-03-09 16:15:00,47.4,32.5,30.30,ENE,58,2.0,8.0,56,0.00,,,0.00,Wunderground v.1.15,2013-03-09 21:15:00,
2013-03-09 16:20:00,47.2,33.6,30.30,East,79,2.0,8.0,59,0.00,,,0.00,Wunderground v.1.15,2013-03-09 21:20:00,
2013-03-09 16:30:00,47.5,33.0,30.29,ENE,69,1.0,8.0,57,0.00,,,0.00,Wunderground v.1.15,2013-03-09 21:30:00,
2013-03-09 16:40:00,47.4,32.9,30.30,NE,55,1.0,1.0,57,0.00,,,0.00,Wunderground v.1.15,2013-03-09 21:40:00,
2013-03-09 16:45:00,47.4,33.4,30.30,NE,55,0.0,8.0,58,0.00,,,0.00,Wunderground v.1.15,2013-03-09 21:45:00,
2013-03-09 16:55:00,47.3,31.9,30.30,ENE,63,0.0,8.0,55,0.00,,,0.00,Wunderground v.1.15,2013-03-09 21:55:00,
2013-03-09 17:00:00,47.0,32.5,30.29,ENE,63,0.0,8.0,57,0.00,,,0.00,Wunderground v.1.15,2013-03-09 22:00:00,
2013-03-09 17:05:00,46.5,31.6,30.30,ENE,63,0.0,8.0,56,0.00,,,0.00,Wunderground v.1.15,2013-03-09 22:05:00,
2013-03-09 17:10:00,46.4,32.8,30.29,ENE,63,0.0,8.0,59,0.00,,,0.00,Wunderground v.1.15,2013-03-09 22:10:00,
2013-03-09 17:15:00,46.6,33.4,30.29,ENE,63,0.0,8.0,60,0.00,,,0.00,Wunderground v.1.15,2013-03-09 22:15:00,
2013-03-09 17:20:00,47.3,33.7,30.29,ENE,63,0.0,8.0,59,0.00,,,0.00,Wunderground v.1.15,2013-03-09 22:20:00,
2013-03-09 17:25:00,47.8,32.4,30.29,ENE,63,0.0,8.0,55,0.00,,,0.00,Wunderground v.1.15,2013-03-09 22:25:00,
2013-03-09 17:35:00,48.0,33.0,30.29,ENE,63,0.0,8.0,56,0.00,,,0.00,Wunderground v.1.15,2013-03-09 22:35:00,
2013-03-09 17:40:00,48.1,33.6,30.29,ENE,63,0.0,8.0,57,0.00,,,0.00,Wunderground v.1.15,2013-03-09 22:40:00,
2013-03-09 17:45:00,48.0,32.1,30.29,ENE,63,0.0,8.0,54,0.00,,,0.00,Wunderground v.1.15,2013-03-09 22:45:00,
2013-03-09 17:50:00,47.8,33.3,30.29,ENE,63,0.0,8.0,57,0.00,,,0.00,Wunderground v.1.15,2013-03-09 22:50:00,
2013-03-09 17:55:00,47.5,32.6,30.29,ENE,63,0.0,8.0,56,0.00,,,0.00,Wunderground v.1.15,2013-03-09 22:55:00,
2013-03-09 18:00:00,47.0,32.1,30.29,ENE,71,0.0,8.0,56,0.00,,,0.00,Wunderground v.1.15,2013-03-09 23:00:00,
2013-03-09 18:10:00,45.1,31.2,30.29,ENE,71,0.0,8.0,58,0.00,,,0.00,Wunderground v.1.15,2013-03-09 23:10:00,
2013-03-09 18:15:00,44.1,30.7,30.29,ENE,71,0.0,8.0,59,0.00,,,0.00,Wunderground v.1.15,2013-03-09 23:15:00,
2013-03-09 18:20:00,43.2,30.2,30.29,ENE,71,0.0,8.0,60,0.00,,,0.00,Wunderground v.1.15,2013-03-09 23:20:00,
2013-03-09 18:25:00,42.5,30.4,30.28,ENE,71,0.0,8.0,62,0.00,,,0.00,Wunderground v.1.15,2013-03-09 23:25:00,
2013-03-09 18:30:00,41.8,30.1,30.28,East,80,0.0,8.0,63,0.00,,,0.00,Wunderground v.1.15,2013-03-09 23:30:00,
2013-03-09 18:35:00,41.1,29.8,30.28,East,81,0.0,8.0,64,0.00,,,0.00,Wunderground v.1.15,2013-03-09 23:35:00,
2013-03-09 18:40:00,40.6,29.4,30.28,East,81,0.0,8.0,64,0.00,,,0.00,Wunderground v.1.15,2013-03-09 23:40:00,
2013-03-09 18:50:00,40.1,29.6,30.29,East,81,0.0,8.0,66,0.00,,,0.00,Wunderground v.1.15,2013-03-09 23:50:00,
2013-03-09 18:55:00,39.9,29.8,30.29,East,81,0.0,8.0,67,0.00,,,0.00,Wunderground v.1.15,2013-03-09 23:55:00,
2013-03-09 19:00:00,39.7,29.6,30.29,East,82,0.0,8.0,67,0.00,,,0.00,Wunderground v.1.15,2013-03-10 00:00:00,
2013-03-09 19:05:00,39.3,29.6,30.28,East,82,0.0,8.0,68,0.00,,,0.00,Wunderground v.1.15,2013-03-10 00:05:00,
2013-03-09 19:10:00,39.1,29.4,30.28,East,85,0.0,8.0,68,0.00,,,0.00,Wunderground v.1.15,2013-03-10 00:10:00,
2013-03-09 19:15:00,38.8,29.5,30.28,East,92,0.0,8.0,69,0.00,,,0.00,Wunderground v.1.15,2013-03-10 00:15:00,
2013-03-09 19:25:00,38.6,29.3,30.28,East,92,0.0,8.0,69,0.00,,,0.00,Wunderground v.1.15,2013-03-10 00:25:00,
2013-03-09 19:30:00,38.4,29.1,30.27,East,98,0.0,8.0,69,0.00,,,0.00,Wunderground v.1.15,2013-03-10 00:30:00,
2013-03-09 19:35:00,38.3,29.4,30.28,ESE,115,0.0,8.0,70,0.00,,,0.00,Wunderground v.1.15,2013-03-10 00:35:00,
2013-03-09 19:40:00,38.2,29.3,30.28,ESE,115,0.0,8.0,70,0.00,,,0.00,Wunderground v.1.15,2013-03-10 00:40:00,
2013-03-09 19:45:00,38.1,29.2,30.28,ESE,115,0.0,8.0,70,0.00,,,0.00,Wunderground v.1.15,2013-03-10 00:45:00,
2013-03-09 19:50:00,37.9,29.3,30.28,ESE,115,0.0,8.0,71,0.00,,,0.00,Wunderground v.1.15,2013-03-10 00:50:00,
2013-03-09 20:00:00,37.4,28.9,30.28,ESE,115,0.0,8.0,71,0.00,,,0.00,Wunderground v.1.15,2013-03-10 01:00:00,
2013-03-09 20:05:00,37.1,28.9,30.28,ESE,115,0.0,8.0,72,0.00,,,0.00,Wunderground v.1.15,2013-03-10 01:05:00,
2013-03-09 20:10:00,37.2,28.7,30.27,ESE,115,0.0,8.0,71,0.00,,,0.00,Wunderground v.1.15,2013-03-10 01:10:00,
2013-03-09 20:15:00,37.2,29.0,30.27,ESE,115,0.0,8.0,72,0.00,,,0.00,Wunderground v.1.15,2013-03-10 01:15:00,
2013-03-09 20:20:00,36.9,29.1,30.28,ESE,115,0.0,8.0,73,0.00,,,0.00,Wunderground v.1.15,2013-03-10 01:20:00,
2013-03-09 20:25:00,36.5,28.7,30.27,ESE,115,0.0,8.0,73,0.00,,,0.00,Wunderground v.1.15,2013-03-10 01:25:00,
2013-03-09 20:30:00,36.1,28.6,30.27,ESE,115,0.0,8.0,74,0.00,,,0.00,Wunderground v.1.15,2013-03-10 01:30:00,
2013-03-09 20:40:00,35.5,28.4,30.26,ESE,115,0.0,8.0,75,0.00,,,0.00,Wunderground v.1.15,2013-03-10 01:40:00,
2013-03-09 20:45:00,35.2,28.1,30.26,ESE,115,0.0,8.0,75,0.00,,,0.00,Wunderground v.1.15,2013-03-10 01:45:00,
2013-03-09 20:50:00,35.0,28.2,30.26,ESE,115,0.0,8.0,76,0.00,,,0.00,Wunderground v.1.15,2013-03-10 01:50:00,
2013-03-09 20:55:00,34.8,28.3,30.26,ESE,115,0.0,8.0,77,0.00,,,0.00,Wunderground v.1.15,2013-03-10 01:55:00,
2013-03-09 21:00:00,34.6,27.8,30.26,South,180,1.0,8.0,76,0.00,,,0.00,Wunderground v.1.15,2013-03-10 02:00:00,
2013-03-09 21:05:00,34.6,28.1,30.26,South,180,1.0,8.0,77,0.00,,,0.00,Wunderground v.1.15,2013-03-10 02:05:00,
2013-03-09 21:10:00,34.8,28.0,30.26,South,180,1.0,1.0,76,0.00,,,0.00,Wunderground v.1.15,2013-03-10 02:10:00,
2013-03-09 21:15:00,35.0,28.2,30.26,South,180,1.0,8.0,76,0.00,,,0.00,Wunderground v.1.15,2013-03-10 02:15:00,
2013-03-09 21:25:00,34.7,28.2,30.26,South,180,0.0,8.0,77,0.00,,,0.00,Wunderground v.1.15,2013-03-10 02:25:00,
2013-03-09 21:30:00,34.3,27.8,30.26,South,180,0.0,8.0,77,0.00,,,0.00,Wunderground v.1.15,2013-03-10 02:30:00,
2013-03-09 21:35:00,34.3,27.8,30.26,South,180,0.0,8.0,77,0.00,,,0.00,Wunderground v.1.15,2013-03-10 02:35:00,
2013-03-09 21:40:00,34.2,27.7,30.26,South,180,1.0,8.0,77,0.00,,,0.00,Wunderground v.1.15,2013-03-10 02:40:00,
2013-03-09 21:45:00,33.9,27.8,30.26,South,180,0.0,8.0,78,0.00,,,0.00,Wunderground v.1.15,2013-03-10 02:45:00,
2013-03-09 21:50:00,33.7,27.6,30.25,South,180,0.0,8.0,78,0.00,,,0.00,Wunderground v.1.15,2013-03-10 02:50:00,
2013-03-09 21:55:00,33.5,27.4,30.25,South,180,0.0,8.0,78,0.00,,,0.00,Wunderground v.1.15,2013-03-10 02:55:00,
2013-03-09 22:05:00,33.7,27.6,30.25,South,180,1.0,8.0,78,0.00,,,0.00,Wunderground v.1.15,2013-03-10 03:05:00,
2013-03-09 22:10:00,33.9,27.4,30.25,South,180,0.0,8.0,77,0.00,,,0.00,Wunderground v.1.15,2013-03-10 03:10:00,
2013-03-09 22:15:00,33.7,27.6,30.25,South,180,0.0,8.0,78,0.00,,,0.00,Wunderground v.1.15,2013-03-10 03:15:00,
2013-03-09 22:20:00,33.2,27.4,30.24,South,180,0.0,8.0,79,0.00,,,0.00,Wunderground v.1.15,2013-03-10 03:20:00,
2013-03-09 22:25:00,32.8,27.3,30.24,South,180,0.0,8.0,80,0.00,,,0.00,Wunderground v.1.15,2013-03-10 03:25:00,
2013-03-09 22:35:00,32.7,27.2,30.24,South,180,0.0,8.0,80,0.00,,,0.00,Wunderground v.1.15,2013-03-10 03:35:00,
2013-03-09 22:40:00,32.6,27.1,30.24,South,180,0.0,8.0,80,0.00,,,0.00,Wunderground v.1.15,2013-03-10 03:40:00,
2013-03-09 22:45:00,32.6,27.7,30.24,South,181,0.0,8.0,82,0.00,,,0.00,Wunderground v.1.15,2013-03-10 03:45:00,
2013-03-09 22:50:00,33.0,27.8,30.24,South,182,0.0,8.0,81,0.00,,,0.00,Wunderground v.1.15,2013-03-10 03:50:00,
2013-03-09 22:55:00,33.3,28.1,30.24,South,184,0.0,8.0,81,0.00,,,0.00,Wunderground v.1.15,2013-03-10 03:55:00,
2013-03-09 23:00:00,33.5,28.3,30.24,SW,228,0.0,8.0,81,0.00,,,0.00,Wunderground v.1.15,2013-03-10 04:00:00,
2013-03-09 23:05:00,33.4,27.9,30.24,SE,144,0.0,8.0,80,0.00,,,0.00,Wunderground v.1.15,2013-03-10 04:05:00,
2013-03-09 23:15:00,32.3,26.8,30.24,SE,134,1.0,8.0,80,0.00,,,0.00,Wunderground v.1.15,2013-03-10 04:15:00,
2013-03-09 23:20:00,32.0,26.8,30.24,SE,134,0.0,8.0,81,0.00,,,0.00,Wunderground v.1.15,2013-03-10 04:20:00,
2013-03-09 23:25:00,31.8,26.9,30.24,SE,134,0.0,8.0,82,0.00,,,0.00,Wunderground v.1.15,2013-03-10 04:25:00,
2013-03-09 23:30:00,31.6,26.7,30.24,SE,134,0.0,8.0,82,0.00,,,0.00,Wunderground v.1.15,2013-03-10 04:30:00,
2013-03-09 23:35:00,31.5,26.6,30.24,SE,134,0.0,8.0,82,0.00,,,0.00,Wunderground v.1.15,2013-03-10 04:35:00,
2013-03-09 23:45:00,32.0,27.1,30.23,SE,134,0.0,8.0,82,0.00,,,0.00,Wunderground v.1.15,2013-03-10 04:45:00,
2013-03-09 23:50:00,32.3,27.1,30.23,SE,134,0.0,8.0,81,0.00,,,0.00,Wunderground v.1.15,2013-03-10 04:50:00,
2013-03-09 23:55:00,32.3,27.1,30.23,SE,134,0.0,8.0,81,0.00,,,0.00,Wunderground v.1.15,2013-03-10 04:55:00,